Georgetown, MA (01833)

12:34 PM EST on December 18, 2014 (GMT -0500)
Crane Neck and Robin Road | Change Station
CLOSE
Current Station
Personal Weather Station
Location: West Newbury, MA
Elevation: 95 ft
Nearby Weather Stations

Elev 95 ft 42.78 °N, 70.99 °W | Updated 8 minutes ago

Overcast
Overcast
42.1 °F
Feels Like 40 °F
N
4.2
Wind Variable Wind from NNW

Today
High -- | Low -- °F
--% Chance of Precip.
Yesterday
High -- | Low -- °F
Precip. -- in
7:09 AM 4:11 PM
Waning Crescent, 13% visible
Pressure 29.77 in
Visibility 10.0 miles
Clouds Overcast 3500 ft
Windchill 40 °F
Dew Point 33 °F
Humidity 70%
Rainfall 0.05 in
Snow Depth Not available.
UV 1 out of 12
Pollen .10 out of 12
Air Quality Not available.
Flu Activity Not available.
METAR KLWM 181654Z 29013G21KT 10SM OVC035 06/M01 A2976 RMK AO2 SLP080 T00561011

More Conditions Fewer Conditions

Pressure 29.77 in
Visibility 10.0 miles
Clouds Overcast 3500 ft
Windchill 40 °F
Dew Point 33 °F
Humidity 70%
Rainfall 0.05 in
Snow Depth Not available.
UV 1 out of 12
Pollen .10 out of 12
Air Quality Not available.
Flu Activity Not available.
METAR KLWM 181654Z 29013G21KT 10SM OVC035 06/M01 A2976 RMK AO2 SLP080 T00561011

More Conditions Fewer Conditions

10-Day Weather Forecast

Almanac

Astronomy

Dec. 18, 2014 Rise Set
Actual Time
Civil Twilight
Nautical Twilight
Astronomical Twilight
Moon
Length of Visible Light
Length of Day
Tomorrow will be .
, % of the Moon is Illuminated

Today's Extremes

State Highs State Lows

Community

WunderPhotos

Upload Photos

1,778,967 photos uploaded!

WunderBlogs® & News

Nearby

Air Quality

  Air Quality AQ Index Pollutant
Not available.

Snow Depth

Station Depth Elevation

Earthquake Activity

City Distance Mag. Time & Date
Minimum magnitude displayed is 2.5.

Coastal Water Temperatures

Place Temperature

Nearby Weather Stations